Time;durP1;ratioP1;P1;durP2;ratioP2;P2;SDS_P1;SDS_P2;PMS_P1;PMS_P2;Temp;Humidity;BMP_temperature;BMP_pressure;BME280_temperature;BME280_humidity;BME280_pressure;Samples;Min_cycle;Max_cycle;Signal;HPM_P1;HPM_P2
2021/03/06 00:00:09;;;;;;;11.55;6.28;;;;;;;2.34;51.92;101286.44;5096102;28;20047;-72
2021/03/06 00:02:35;;;;;;;10.82;6.13;;;;;;;2.26;52.21;101291.75;5096124;28;20023;-71
2021/03/06 00:05:01;;;;;;;11.63;6.40;;;;;;;2.26;52.85;101285.63;5096268;28;20120;-71
2021/03/06 00:07:26;;;;;;;10.65;6.53;;;;;;;2.27;52.94;101301.41;5095867;28;20031;-71
2021/03/06 00:09:52;;;;;;;11.05;6.00;;;;;;;2.28;53.24;101289.09;5096241;28;20024;-71
2021/03/06 00:12:17;;;;;;;10.90;6.03;;;;;;;2.32;53.69;101301.38;5113836;28;20092;-71
2021/03/06 00:14:43;;;;;;;11.85;6.03;;;;;;;2.44;53.53;101300.38;5114168;28;20023;-73
2021/03/06 00:17:08;;;;;;;11.60;6.20;;;;;;;2.41;53.78;101319.69;5095900;28;20080;-72
2021/03/06 00:19:34;;;;;;;12.23;6.18;;;;;;;2.36;54.12;101313.59;5113829;28;20119;-73
2021/03/06 00:21:59;;;;;;;11.43;5.68;;;;;;;2.40;54.27;101317.94;5113998;28;20031;-72
2021/03/06 00:24:25;;;;;;;9.98;5.68;;;;;;;2.38;54.79;101318.84;5095500;28;20042;-73
2021/03/06 00:26:50;;;;;;;9.88;5.18;;;;;;;2.34;54.74;101318.03;5114114;28;20039;-73
2021/03/06 00:29:16;;;;;;;10.02;5.88;;;;;;;2.36;54.93;101318.00;5095532;28;20455;-72
2021/03/06 00:31:42;;;;;;;9.93;5.95;;;;;;;2.44;55.16;101327.56;5095940;28;20381;-73
2021/03/06 00:34:08;;;;;;;8.80;5.38;;;;;;;2.41;54.85;101340.75;5113862;28;20532;-71
2021/03/06 00:36:33;;;;;;;9.15;5.20;;;;;;;2.43;55.41;101336.38;5113506;28;20385;-71
2021/03/06 00:39:00;;;;;;;8.77;5.30;;;;;;;2.39;55.93;101331.13;5113927;28;20058;-70
2021/03/06 00:41:25;;;;;;;8.65;5.28;;;;;;;2.49;55.55;101345.94;5113625;28;20051;-71
2021/03/06 00:43:51;;;;;;;11.27;5.38;;;;;;;2.38;55.68;101334.66;5113697;28;20050;-71
2021/03/06 00:46:16;;;;;;;11.18;6.07;;;;;;;2.30;55.80;101340.84;5113304;28;20040;-71
2021/03/06 00:48:42;;;;;;;10.13;5.80;;;;;;;2.33;55.82;101336.47;5113600;28;20355;-70
2021/03/06 00:51:07;;;;;;;11.70;5.97;;;;;;;2.36;55.99;101345.19;5113555;28;20027;-72
2021/03/06 00:53:34;;;;;;;9.32;5.65;;;;;;;2.34;56.37;101340.84;5078053;28;20541;-71
2021/03/06 00:55:59;;;;;;;10.80;6.38;;;;;;;2.23;57.05;101344.44;5113545;28;20160;-71
2021/03/06 00:58:25;;;;;;;10.88;6.40;;;;;;;2.25;56.99;101339.16;5113260;28;20102;-71
2021/03/06 01:00:50;;;;;;;11.77;5.82;;;;;;;2.18;57.48;101337.47;5113267;28;20047;-71
2021/03/06 01:03:15;;;;;;;12.18;6.35;;;;;;;2.20;57.23;101344.44;5094879;28;20027;-70
2021/03/06 01:05:41;;;;;;;10.63;5.75;;;;;;;2.32;57.20;101350.50;5095352;28;20031;-70
2021/03/06 01:08:07;;;;;;;11.60;5.95;;;;;;;2.27;57.51;101356.69;5113346;28;20111;-71
2021/03/06 01:10:38;;;;;;;9.43;5.35;;;;;;;2.33;57.34;101355.78;5094783;28;20493;-71
2021/03/06 01:13:06;;;;;;;9.43;5.40;;;;;;;2.27;57.54;101361.94;5113181;28;20036;-71
2021/03/06 01:15:32;;;;;;;8.60;5.18;;;;;;;2.25;57.98;101365.50;5112854;28;20027;-73
2021/03/06 01:17:57;;;;;;;11.32;5.13;;;;;;;2.21;58.13;101375.16;5095080;28;20546;-73
2021/03/06 01:20:24;;;;;;;8.60;5.20;;;;;;;2.26;58.03;101376.00;5113013;28;20110;-73
2021/03/06 01:22:50;;;;;;;10.50;5.47;;;;;;;2.21;58.34;101374.28;5113414;28;20084;-73
2021/03/06 01:25:17;;;;;;;11.27;5.38;;;;;;;2.26;57.79;101376.00;5094837;28;20039;-75
2021/03/06 01:27:42;;;;;;;9.40;5.15;;;;;;;2.26;58.28;101370.75;5113143;28;20023;-74
2021/03/06 01:30:09;;;;;;;9.07;5.03;;;;;;;2.29;58.45;101381.22;5113075;28;20479;-73
2021/03/06 01:32:34;;;;;;;9.75;5.20;;;;;;;2.23;58.61;101373.41;5112796;28;20621;-72
2021/03/06 01:35:00;;;;;;;9.70;5.45;;;;;;;2.30;58.88;101387.38;5095021;28;20106;-72
2021/03/06 01:37:25;;;;;;;9.73;5.05;;;;;;;2.36;58.14;101387.34;5112700;28;20469;-71
2021/03/06 01:39:51;;;;;;;10.95;5.85;;;;;;;2.35;57.76;101390.84;5113038;28;20110;-75
2021/03/06 01:42:21;;;;;;;9.20;4.88;;;;;;;2.28;56.06;101381.25;5094518;28;20032;-76
2021/03/06 01:44:47;;;;;;;10.63;5.50;;;;;;;2.22;56.66;101379.56;5117034;28;20053;-74
2021/03/06 01:47:12;;;;;;;10.30;5.72;;;;;;;2.24;54.17;101382.19;5081988;28;20028;-74
2021/03/06 01:49:38;;;;;;;8.50;4.85;;;;;;;2.25;53.50;101394.44;5116768;28;20047;-74
2021/03/06 01:52:05;;;;;;;9.40;5.22;;;;;;;2.30;51.40;101390.88;5098629;28;20115;-73
2021/03/06 01:54:31;;;;;;;7.65;4.55;;;;;;;2.33;50.39;101389.13;5081575;28;20038;-73
2021/03/06 01:56:56;;;;;;;10.20;4.75;;;;;;;2.24;49.19;101383.03;5098789;28;20035;-73
2021/03/06 01:59:22;;;;;;;11.55;4.90;;;;;;;2.34;49.07;101398.78;5116538;28;20498;-73
2021/03/06 02:01:48;;;;;;;12.63;5.22;;;;;;;2.13;50.27;101403.31;5116779;28;20478;-72
2021/03/06 02:04:14;;;;;;;8.32;5.15;;;;;;;2.13;50.64;101405.97;5116769;28;20099;-72
2021/03/06 02:06:39;;;;;;;9.00;5.15;;;;;;;2.01;50.62;101406.00;5116342;28;20029;-72
2021/03/06 02:09:06;;;;;;;12.40;5.88;;;;;;;1.99;51.27;101413.94;5116748;28;20043;-73
2021/03/06 02:11:40;;;;;;;10.40;4.97;;;;;;;1.89;50.61;101406.09;5097895;28;20027;-73
2021/03/06 02:14:35;;;;;;;11.02;5.13;;;;;;;1.83;51.20;101422.78;5116616;28;20019;-73
2021/03/06 02:17:06;;;;;;;9.05;5.05;;;;;;;1.87;50.79;101419.28;5116520;28;20390;-74
2021/03/06 02:19:44;;;;;;;8.15;5.22;;;;;;;1.73;52.25;101429.84;5116156;28;20023;-71
2021/03/06 02:22:34;;;;;;;10.63;5.13;;;;;;;1.61;52.48;101429.94;5116316;28;20022;-71
2021/03/06 02:25:15;;;;;;;12.20;5.45;;;;;;;1.57;52.49;101430.84;5116315;28;20059;-70
2021/03/06 02:28:07;;;;;;;11.52;5.82;;;;;;;1.58;52.31;101429.94;5116024;28;20420;-70
2021/03/06 02:30:33;;;;;;;10.75;5.40;;;;;;;1.59;51.74;101433.44;5108780;28;20078;-70
2021/03/06 02:33:01;;;;;;;11.52;6.00;;;;;;;1.58;52.05;101429.94;5116092;28;20119;-71
2021/03/06 02:35:31;;;;;;;10.05;5.07;;;;;;;1.48;51.53;101435.25;5116081;28;20028;-70
2021/03/06 02:38:14;;;;;;;11.93;5.75;;;;;;;1.43;51.52;101430.88;5116346;28;20081;-71
2021/03/06 02:40:42;;;;;;;10.45;5.55;;;;;;;1.42;51.60;101434.38;5117189;28;20035;-70
2021/03/06 02:43:09;;;;;;;9.52;5.47;;;;;;;1.33;51.44;101439.69;5116885;28;20035;-71
2021/03/06 02:45:36;;;;;;;9.85;5.20;;;;;;;1.28;52.20;101440.59;5115706;28;20435;-71
2021/03/06 02:48:02;;;;;;;12.55;5.35;;;;;;;1.27;51.58;101449.38;5115853;28;20051;-71
2021/03/06 02:50:28;;;;;;;9.05;4.93;;;;;;;1.30;51.59;101452.84;5115643;28;20108;-70
2021/03/06 02:52:53;;;;;;;10.35;5.10;;;;;;;1.25;51.88;101458.97;5115762;28;20385;-70
2021/03/06 02:55:18;;;;;;;9.18;5.30;;;;;;;1.17;51.68;101459.03;5096424;28;20028;-71
2021/03/06 02:58:21;;;;;;;10.55;5.18;;;;;;;1.15;51.79;101463.38;5097264;28;20504;-70
2021/03/06 03:00:53;;;;;;;8.55;4.93;;;;;;;1.20;51.73;101472.16;5115529;28;20075;-72
2021/03/06 03:03:28;;;;;;;9.38;4.93;;;;;;;1.06;52.35;101466.94;5115760;28;20415;-73
2021/03/06 03:06:13;;;;;;;11.80;5.03;;;;;;;1.14;51.94;101480.91;5115601;28;20020;-72
2021/03/06 03:09:17;;;;;;;10.13;4.85;;;;;;;1.27;51.15;101483.53;5115222;28;20381;-72
2021/03/06 03:11:51;;;;;;;10.40;4.70;;;;;;;1.19;50.96;101491.44;5115202;28;20020;-70
2021/03/06 03:14:21;;;;;;;11.68;5.18;;;;;;;1.17;51.43;101498.44;5115400;28;20123;-71
2021/03/06 03:17:00;;;;;;;12.05;5.95;;;;;;;1.22;51.54;101501.06;5097027;28;20030;-71
2021/03/06 03:19:31;;;;;;;10.90;5.60;;;;;;;1.23;51.53;101502.81;5115017;28;20028;-70
2021/03/06 03:22:00;;;;;;;9.85;5.32;;;;;;;1.19;51.04;101503.69;5096916;28;20031;-72
2021/03/06 03:24:29;;;;;;;11.77;5.25;;;;;;;1.23;50.96;101510.69;5114752;28;20147;-70
2021/03/06 03:26:56;;;;;;;12.38;5.55;;;;;;;1.08;50.84;101509.84;5097489;28;20031;-72
2021/03/06 03:29:22;;;;;;;10.82;4.72;;;;;;;1.08;51.19;101522.97;5097291;28;20023;-76
2021/03/06 03:31:50;;;;;;;13.57;5.38;;;;;;;1.14;50.99;101522.97;5115122;28;20389;-74
2021/03/06 03:34:20;;;;;;;10.30;5.10;;;;;;;0.98;51.08;101515.13;5096778;28;20027;-74
2021/03/06 03:36:48;;;;;;;10.77;5.43;;;;;;;1.01;51.20;101530.88;5096381;28;20527;-74
2021/03/06 03:39:14;;;;;;;10.50;5.43;;;;;;;0.99;51.71;101525.63;5114887;28;20033;-74
2021/03/06 03:41:40;;;;;;;12.40;5.90;;;;;;;1.02;52.22;101530.00;5096417;28;20462;-74
2021/03/06 03:44:07;;;;;;;11.27;5.30;;;;;;;1.01;52.11;101534.38;5096698;28;20098;-74
2021/03/06 03:46:34;;;;;;;11.13;5.60;;;;;;;1.04;51.43;101539.63;5114454;28;20428;-74
2021/03/06 03:49:03;;;;;;;10.68;5.70;;;;;;;0.98;51.99;101544.03;5114657;28;20435;-70
2021/03/06 03:51:28;;;;;;;15.75;5.80;;;;;;;0.91;52.45;101547.50;5114374;28;20040;-71
2021/03/06 03:53:54;;;;;;;9.52;5.70;;;;;;;0.81;52.83;101541.38;5114605;28;20393;-69
2021/03/06 03:56:20;;;;;;;11.77;5.82;;;;;;;0.77;52.82;101547.50;5114674;28;20023;-68
2021/03/06 03:58:48;;;;;;;11.35;5.72;;;;;;;0.65;53.18;101542.25;5114026;28;20050;-69
2021/03/06 04:01:14;;;;;;;11.80;5.97;;;;;;;0.51;53.54;101540.50;5114583;28;20031;-71
2021/03/06 04:03:39;;;;;;;12.07;6.00;;;;;;;0.39;54.07;101550.97;5114094;28;20035;-72
2021/03/06 04:06:06;;;;;;;11.23;6.60;;;;;;;0.35;54.01;101550.94;5114136;28;20026;-73
2021/03/06 04:08:32;;;;;;;10.15;6.13;;;;;;;0.33;54.23;101553.56;5096041;28;20092;-72
2021/03/06 04:10:57;;;;;;;11.70;5.90;;;;;;;0.34;54.29;101560.56;5079230;28;20023;-71
2021/03/06 04:13:23;;;;;;;12.48;6.38;;;;;;;0.17;54.99;101562.25;5114174;28;20024;-71
2021/03/06 04:15:48;;;;;;;11.38;6.50;;;;;;;0.16;54.89;101566.63;5113910;28;20030;-72
2021/03/06 04:18:14;;;;;;;9.30;5.53;;;;;;;0.13;55.19;101566.63;5114176;28;20401;-72
2021/03/06 04:20:40;;;;;;;13.55;6.30;;;;;;;-0.01;55.75;101558.69;5113722;28;20034;-72
2021/03/06 04:23:05;;;;;;;14.93;6.80;;;;;;;0.05;55.20;101562.22;5114008;28;20484;-72
2021/03/06 04:25:31;;;;;;;12.60;6.47;;;;;;;0.06;55.34;101569.22;5113920;28;20039;-72
2021/03/06 04:27:57;;;;;;;12.93;6.50;;;;;;;0.05;55.73;101567.47;5114052;28;20039;-71
2021/03/06 04:30:23;;;;;;;10.68;6.10;;;;;;;-0.02;55.71;101577.94;5113889;28;20024;-72
2021/03/06 04:32:49;;;;;;;11.32;5.72;;;;;;;-0.14;56.18;101575.25;5078304;28;20028;-71
2021/03/06 04:35:14;;;;;;;12.88;6.55;;;;;;;-0.17;56.06;101572.63;5095635;28;20030;-73
2021/03/06 04:37:40;;;;;;;12.50;5.75;;;;;;;-0.14;56.48;101580.50;5113502;28;20382;-74
2021/03/06 04:40:08;;;;;;;11.75;6.22;;;;;;;-0.08;56.09;101583.19;5113796;28;20042;-72
2021/03/06 04:42:34;;;;;;;13.25;6.13;;;;;;;-0.12;55.92;101589.25;5113419;28;20366;-72
2021/03/06 04:45:00;;;;;;;12.85;6.32;;;;;;;0.03;55.55;101579.72;5113763;28;20035;-72
2021/03/06 04:47:25;;;;;;;13.70;6.03;;;;;;;0.03;55.64;101584.97;5078784;28;20027;-76
2021/03/06 04:49:50;;;;;;;13.90;6.20;;;;;;;0.01;55.73;101591.97;5078297;28;20058;-75
2021/03/06 04:52:16;;;;;;;10.52;5.93;;;;;;;-0.10;55.68;101590.13;5113530;28;20034;-74
2021/03/06 04:54:41;;;;;;;13.30;6.30;;;;;;;-0.18;56.15;101581.38;5113121;28;20038;-75
2021/03/06 04:57:11;;;;;;;12.63;6.40;;;;;;;-0.16;56.20;101591.88;5113642;28;20027;-74
2021/03/06 04:59:36;;;;;;;11.57;6.35;;;;;;;-0.19;55.96;101589.22;5112970;28;20467;-74
2021/03/06 05:02:02;;;;;;;12.20;6.68;;;;;;;-0.19;56.15;101594.47;5095144;28;20058;-72
2021/03/06 05:04:28;;;;;;;12.75;6.45;;;;;;;-0.26;56.45;101596.19;5113194;28;20110;-78
2021/03/06 05:06:53;;;;;;;12.60;6.57;;;;;;;-0.43;57.25;101592.59;5095327;28;20038;-75
2021/03/06 05:09:19;;;;;;;14.23;6.65;;;;;;;-0.42;56.79;101586.47;5113361;28;20023;-76
2021/03/06 05:11:45;;;;;;;12.95;5.95;;;;;;;-0.31;56.86;101601.41;5112897;28;20502;-74
2021/03/06 05:14:10;;;;;;;12.85;6.60;;;;;;;-0.19;56.14;101600.59;5113220;28;20028;-71
2021/03/06 05:16:36;;;;;;;12.20;6.20;;;;;;;-0.30;56.48;101603.16;5112892;28;20062;-73
2021/03/06 05:19:02;;;;;;;13.82;6.60;;;;;;;-0.22;56.37;101602.31;5112502;28;20036;-73
2021/03/06 05:21:27;;;;;;;11.45;6.07;;;;;;;-0.17;55.95;101606.72;5094844;28;20031;-73
2021/03/06 05:23:52;;;;;;;12.77;6.30;;;;;;;-0.14;56.09;101609.34;5094719;28;20470;-73
2021/03/06 05:26:18;;;;;;;12.88;6.45;;;;;;;-0.33;56.53;101613.63;5113138;28;20020;-74
2021/03/06 05:28:43;;;;;;;13.95;6.20;;;;;;;-0.20;56.41;101609.31;5112855;28;20474;-71
2021/03/06 05:31:09;;;;;;;15.05;6.93;;;;;;;-0.21;56.24;101607.56;5113103;28;20028;-71
2021/03/06 05:33:34;;;;;;;12.88;7.10;;;;;;;-0.21;56.49;101614.56;5112650;28;20042;-71
2021/03/06 05:36:00;;;;;;;12.77;7.07;;;;;;;-0.26;56.57;101613.66;5094861;28;20034;-73
2021/03/06 05:38:25;;;;;;;15.50;6.75;;;;;;;-0.27;56.62;101625.91;5094907;28;20046;-73
2021/03/06 05:40:51;;;;;;;13.88;6.47;;;;;;;-0.13;55.93;101631.22;5094596;28;20035;-73
2021/03/06 05:43:16;;;;;;;12.73;6.72;;;;;;;-0.20;56.36;101634.66;5113042;28;20078;-72
2021/03/06 05:45:49;;;;;;;13.13;6.60;;;;;;;-0.12;56.17;101631.22;5094614;28;20024;-70
2021/03/06 05:48:18;;;;;;;11.53;6.57;;;;;;;-0.06;56.28;101628.66;5112973;28;20024;-73
2021/03/06 05:50:45;;;;;;;14.38;6.82;;;;;;;-0.10;56.73;101632.09;5094544;28;20023;-69
2021/03/06 05:53:13;;;;;;;9.93;6.18;;;;;;;0.10;55.46;101633.97;5094555;28;20363;-70
2021/03/06 05:55:41;;;;;;;13.30;6.07;;;;;;;0.01;55.87;101633.94;5112686;28;20040;-70
2021/03/06 05:58:08;;;;;;;11.63;6.57;;;;;;;0.00;55.82;101635.69;5113042;28;20026;-71
2021/03/06 06:00:34;;;;;;;12.15;6.95;;;;;;;0.09;55.48;101638.31;5115877;28;20462;-74
2021/03/06 06:02:59;;;;;;;14.00;6.90;;;;;;;0.17;55.45;101651.47;5095493;28;20020;-71
2021/03/06 06:05:25;;;;;;;13.48;7.05;;;;;;;0.23;55.32;101652.41;5112897;28;20034;-69
2021/03/06 06:07:54;;;;;;;15.30;7.07;;;;;;;0.23;55.38;101657.66;5112426;28;20024;-69
2021/03/06 06:10:20;;;;;;;14.35;6.43;;;;;;;0.37;55.09;101664.69;5094610;28;20020;-70
2021/03/06 06:12:45;;;;;;;17.67;6.90;;;;;;;0.49;54.41;101675.25;5112376;28;20031;-68
2021/03/06 06:15:12;;;;;;;12.80;6.70;;;;;;;0.39;54.95;101676.97;5077650;28;20055;-71
2021/03/06 06:17:38;;;;;;;15.75;7.07;;;;;;;0.43;54.80;101681.34;5112291;28;20034;-70
2021/03/06 06:20:04;;;;;;;14.20;6.95;;;;;;;0.49;54.38;101680.50;5112782;28;20034;-71
2021/03/06 06:22:30;;;;;;;16.00;7.15;;;;;;;0.60;54.23;101673.53;5112479;28;20019;-71
2021/03/06 06:24:55;;;;;;;13.77;6.60;;;;;;;0.78;53.21;101675.34;5112262;28;20127;-71
2021/03/06 06:27:32;;;;;;;14.82;7.20;;;;;;;0.78;53.60;101670.97;5112709;28;20024;-71
2021/03/06 06:29:59;;;;;;;12.85;6.63;;;;;;;0.77;53.97;101684.97;5114480;28;20023;-70
2021/03/06 06:32:28;;;;;;;13.43;7.05;;;;;;;0.81;53.37;101691.09;5116274;28;20028;-71
2021/03/06 06:34:57;;;;;;;13.32;6.88;;;;;;;0.98;52.94;101694.66;5115846;28;20382;-71
2021/03/06 06:37:23;;;;;;;14.68;6.95;;;;;;;0.94;53.11;101695.50;5097789;28;20034;-71
2021/03/06 06:39:49;;;;;;;14.70;7.68;;;;;;;1.01;52.92;101702.53;5115826;28;20428;-71
2021/03/06 06:42:15;;;;;;;13.10;7.50;;;;;;;1.13;52.53;101710.44;5116044;28;20020;-71
2021/03/06 06:44:53;;;;;;;14.82;7.72;;;;;;;1.12;52.96;101711.31;5115541;28;20081;-71
2021/03/06 06:47:19;;;;;;;12.90;6.97;;;;;;;1.01;52.49;101714.81;5115923;28;20023;-72
2021/03/06 06:49:50;;;;;;;8.57;4.38;;;;;;;0.99;52.15;101720.06;5097212;28;20478;-71
2021/03/06 06:52:17;;;;;;;12.13;6.57;;;;;;;1.09;52.04;101728.84;5115959;28;20110;-72
2021/03/06 06:54:54;;;;;;;11.27;6.63;;;;;;;1.23;52.28;101723.59;5115687;28;20031;-75
2021/03/06 06:57:20;;;;;;;15.35;6.97;;;;;;;1.22;52.41;101727.97;5115927;28;20497;-73
2021/03/06 06:59:56;;;;;;;13.13;7.10;;;;;;;1.34;51.98;101735.00;5115139;28;20527;-73
2021/03/06 07:02:22;;;;;;;15.35;6.65;;;;;;;1.35;51.43;101734.13;5115642;28;20073;-71
2021/03/06 07:04:51;;;;;;;14.27;6.95;;;;;;;1.34;51.99;101733.25;5097172;28;20424;-73
2021/03/06 07:07:19;;;;;;;12.18;6.50;;;;;;;1.41;51.03;101756.03;5115481;28;20031;-72
2021/03/06 07:10:00;;;;;;;13.18;6.68;;;;;;;1.42;51.25;101742.03;5115062;28;20390;-71
2021/03/06 07:12:28;;;;;;;11.65;6.35;;;;;;;1.41;50.46;101756.03;5096986;28;20035;-72
2021/03/06 07:14:54;;;;;;;13.68;6.53;;;;;;;1.37;50.81;101756.06;5115210;28;20020;-71
2021/03/06 07:17:19;;;;;;;10.68;6.40;;;;;;;1.44;51.01;101763.94;5115328;28;20508;-71
2021/03/06 07:19:45;;;;;;;12.52;7.05;;;;;;;1.54;51.21;101767.44;5115045;28;20505;-72
2021/03/06 07:22:12;;;;;;;14.65;6.78;;;;;;;1.54;50.76;101762.19;5115107;28;20034;-75
2021/03/06 07:24:38;;;;;;;12.90;7.30;;;;;;;1.47;51.18;101765.72;5096901;28;20168;-72
2021/03/06 07:27:04;;;;;;;12.05;6.68;;;;;;;1.40;51.50;101761.31;5096735;28;20111;-73
2021/03/06 07:29:29;;;;;;;12.93;7.28;;;;;;;1.49;50.97;101771.84;5115184;28;20024;-73
2021/03/06 07:31:56;;;;;;;16.80;7.63;;;;;;;1.48;51.43;101770.09;5096492;28;20107;-74
2021/03/06 07:34:24;;;;;;;13.30;6.55;;;;;;;1.51;50.29;101766.56;5096854;28;20028;-75
2021/03/06 07:36:53;;;;;;;16.13;6.90;;;;;;;1.56;50.20;101770.97;5114702;28;20027;-73
2021/03/06 07:39:19;;;;;;;12.27;6.95;;;;;;;1.64;50.29;101779.75;5115012;28;20024;-74
2021/03/06 07:41:58;;;;;;;13.30;6.40;;;;;;;1.66;50.59;101772.75;5113873;28;20035;-75
2021/03/06 07:44:25;;;;;;;12.88;6.90;;;;;;;1.85;49.66;101756.97;5096716;28;20043;-74
2021/03/06 07:46:51;;;;;;;12.70;5.88;;;;;;;1.96;48.20;101757.81;5096320;28;20035;-74
2021/03/06 07:49:17;;;;;;;10.27;5.75;;;;;;;1.89;48.59;101769.22;5114630;28;20023;-71
2021/03/06 07:51:46;;;;;;;12.63;5.97;;;;;;;2.14;47.74;101767.47;5096426;28;20030;-75
2021/03/06 07:54:16;;;;;;;11.38;6.00;;;;;;;2.04;47.44;101773.63;5114458;28;20112;-75
2021/03/06 07:56:42;;;;;;;10.68;6.13;;;;;;;1.95;47.61;101756.06;5114472;28;20027;-76
2021/03/06 07:59:08;;;;;;;10.93;6.57;;;;;;;2.09;47.34;101777.97;5113980;28;20502;-83
2021/03/06 08:01:35;;;;;;;12.35;6.05;;;;;;;2.20;46.87;101775.31;5099461;28;20028;-78
2021/03/06 08:04:02;;;;;;;12.20;5.88;;;;;;;2.20;46.88;101775.31;5097455;28;20026;-78
2021/03/06 08:06:29;;;;;;;12.63;5.88;;;;;;;2.33;46.75;101770.94;5114565;28;20103;-75
2021/03/06 08:08:58;;;;;;;10.13;5.55;;;;;;;2.26;46.30;101783.22;5062866;28;20051;-75
2021/03/06 08:11:34;;;;;;;11.65;5.95;;;;;;;2.23;46.54;101770.06;5114315;28;20393;-74
2021/03/06 08:14:06;;;;;;;9.40;5.30;;;;;;;2.19;46.12;101763.91;5113974;28;20073;-82
2021/03/06 08:16:32;;;;;;;10.20;5.45;;;;;;;2.40;46.02;101778.78;5114261;28;20103;-78
2021/03/06 08:19:00;;;;;;;9.45;5.25;;;;;;;2.56;45.23;101779.63;5114202;28;20051;-77
2021/03/06 08:21:32;;;;;;;11.18;5.32;;;;;;;2.73;45.29;101784.84;5114341;28;20020;-81
2021/03/06 08:24:18;;;;;;;8.97;4.57;;;;;;;2.76;42.85;101783.06;5079099;28;20114;-79
2021/03/06 08:26:52;;;;;;;9.68;4.43;;;;;;;2.76;43.73;101780.44;5114699;28;20023;-79
2021/03/06 08:29:24;;;;;;;9.27;4.28;;;;;;;2.73;43.58;101780.47;5114205;28;20028;-79
2021/03/06 08:32:23;;;;;;;10.68;4.75;;;;;;;2.82;43.10;101798.00;5113843;28;20034;-78
2021/03/06 08:34:54;;;;;;;7.97;4.38;;;;;;;2.94;43.42;101783.91;5113485;28;20028;-74
2021/03/06 08:37:19;;;;;;;8.05;4.13;;;;;;;3.08;41.86;101785.56;5095670;28;20035;-73
2021/03/06 08:40:15;;;;;;;9.27;4.55;;;;;;;2.94;42.24;101789.16;5095416;28;20528;-74
2021/03/06 08:42:49;;;;;;;8.05;3.92;;;;;;;3.08;41.79;101784.69;5095672;28;20020;-74
2021/03/06 08:45:30;;;;;;;8.63;4.40;;;;;;;3.12;41.28;101783.81;5095284;28;20024;-75
2021/03/06 08:48:01;;;;;;;8.88;4.53;;;;;;;3.20;41.53;101781.13;5113367;28;20023;-74
2021/03/06 08:50:28;;;;;;;7.65;4.30;;;;;;;3.28;41.54;101801.31;5113618;28;20019;-70
2021/03/06 08:52:56;;;;;;;7.25;4.13;;;;;;;3.33;39.91;101786.31;5111966;28;20024;-71
2021/03/06 08:55:23;;;;;;;6.47;3.42;;;;;;;3.39;38.70;101793.34;5113195;28;20054;-74
2021/03/06 08:57:49;;;;;;;6.85;3.50;;;;;;;3.31;38.50;101782.81;5095126;28;20031;-75
2021/03/06 09:00:17;;;;;;;8.30;3.45;;;;;;;3.27;38.09;101788.97;5113476;28;20056;-76
2021/03/06 09:02:43;;;;;;;6.15;3.55;;;;;;;3.29;38.41;101792.50;5118225;27;20490;-72
2021/03/06 09:05:12;;;;;;;7.63;3.40;;;;;;;3.36;38.34;101785.41;5133230;27;20043;-72
2021/03/06 09:07:40;;;;;;;9.60;3.63;;;;;;;3.34;38.13;101788.06;5131849;27;20191;-74
2021/03/06 09:10:12;;;;;;;7.90;3.53;;;;;;;3.37;37.24;101790.66;5134678;27;20469;-75
2021/03/06 09:12:39;;;;;;;5.40;3.03;;;;;;;3.41;37.57;101779.25;5134833;27;20023;-76
2021/03/06 09:15:06;;;;;;;7.72;3.38;;;;;;;3.45;37.13;101769.53;5116205;27;20034;-75
2021/03/06 09:17:31;;;;;;;9.57;3.55;;;;;;;3.40;36.90;101769.56;5134996;28;20070;-76
2021/03/06 09:20:03;;;;;;;6.55;3.20;;;;;;;3.43;36.86;101777.47;5155967;27;20026;-76
2021/03/06 09:22:42;;;;;;;7.70;3.70;;;;;;;3.49;36.49;101775.69;5138149;28;20064;-78
2021/03/06 09:25:08;;;;;;;7.90;3.47;;;;;;;3.62;36.70;101777.34;5115537;28;20108;-77
2021/03/06 09:27:48;;;;;;;7.50;3.50;;;;;;;3.64;37.29;101771.16;5098594;28;20039;-77
2021/03/06 09:30:26;;;;;;;7.00;3.90;;;;;;;3.57;37.59;101773.84;5114991;28;20028;-77
2021/03/06 09:32:51;;;;;;;7.32;3.22;;;;;;;3.72;36.54;101753.50;5132962;28;20027;-75
2021/03/06 09:35:19;;;;;;;7.93;3.67;;;;;;;3.82;35.91;101771.91;5133298;28;20038;-78
2021/03/06 09:37:45;;;;;;;8.75;3.83;;;;;;;3.87;35.86;101768.34;5132872;27;20389;-84
2021/03/06 09:40:19;;;;;;;9.43;3.78;;;;;;;3.84;36.21;101768.34;5133286;27;20034;-83
2021/03/06 09:42:49;;;;;;;30.80;13.00;;;;;;;3.91;36.48;101761.25;5115186;28;20486;-82
2021/03/06 09:45:15;;;;;;;13.63;7.47;;;;;;;3.96;35.58;101765.63;5115113;28;20054;-74
2021/03/06 09:47:42;;;;;;;6.22;3.13;;;;;;;4.01;35.01;101758.53;5114578;28;20375;-77
2021/03/06 09:50:09;;;;;;;7.18;3.33;;;;;;;4.19;34.76;101767.16;5132906;27;20047;-75
2021/03/06 09:52:35;;;;;;;7.15;3.88;;;;;;;4.10;34.42;101756.69;5132750;28;20053;-76
2021/03/06 09:55:01;;;;;;;8.23;3.13;;;;;;;4.05;33.83;101746.16;5132978;27;20035;-75
2021/03/06 09:57:27;;;;;;;6.10;3.00;;;;;;;4.06;33.15;101765.53;5114341;28;20027;-74
2021/03/06 09:59:53;;;;;;;5.40;2.75;;;;;;;4.07;33.17;101762.00;5132526;27;20092;-75
2021/03/06 10:02:23;;;;;;;6.75;2.95;;;;;;;4.11;33.48;101746.09;5132533;28;20035;-77
2021/03/06 10:04:51;;;;;;;6.00;2.70;;;;;;;4.27;32.13;101771.50;5135294;27;20478;-82
2021/03/06 10:07:24;;;;;;;6.75;2.88;;;;;;;4.20;31.54;101729.28;5118325;27;20027;-81
2021/03/06 10:09:50;;;;;;;7.07;3.22;;;;;;;4.20;32.93;101745.16;5136825;27;20080;-79
2021/03/06 10:12:18;;;;;;;6.43;3.10;;;;;;;4.17;33.75;101747.81;5136141;27;20035;-74
2021/03/06 10:14:48;;;;;;;5.57;3.05;;;;;;;4.16;34.70;101767.22;5136470;27;20454;-81
2021/03/06 10:17:22;;;;;;;5.95;3.15;;;;;;;4.38;34.60;101776.66;5138016;27;20022;-79
2021/03/06 10:19:51;;;;;;;5.68;3.13;;;;;;;4.44;33.55;101773.97;5137629;27;20025;-79
2021/03/06 10:22:18;;;;;;;5.90;2.78;;;;;;;4.32;33.18;101771.41;5136749;27;20550;-77
2021/03/06 10:24:57;;;;;;;11.35;4.97;;;;;;;4.24;33.32;101763.56;5136426;27;20482;-79
2021/03/06 10:27:35;;;;;;;6.43;3.40;;;;;;;4.45;33.31;101766.91;5137182;27;20080;-78
2021/03/06 10:30:14;;;;;;;6.90;3.33;;;;;;;4.56;33.04;101770.31;5136448;27;20023;-79
2021/03/06 10:32:48;;;;;;;5.43;2.60;;;;;;;4.71;32.45;101769.22;5136629;27;20064;-79
2021/03/06 10:35:46;;;;;;;5.40;3.03;;;;;;;4.79;32.17;101767.38;5137083;27;20043;-78
2021/03/06 10:38:13;;;;;;;7.68;3.20;;;;;;;4.90;32.13;101760.19;5118330;27;20027;-80
2021/03/06 10:40:55;;;;;;;6.97;3.05;;;;;;;4.98;31.09;101774.19;5118077;27;20027;-80
2021/03/06 10:43:43;;;;;;;9.00;3.00;;;;;;;4.89;30.18;101775.16;5136765;27;20095;-78
2021/03/06 10:46:18;;;;;;;7.05;3.20;;;;;;;4.89;31.11;101761.94;5136780;27;20130;-79
2021/03/06 10:49:05;;;;;;;5.75;2.85;;;;;;;4.98;31.39;101753.03;5136404;27;20023;-78
2021/03/06 10:51:52;;;;;;;5.90;2.58;;;;;;;5.30;30.48;101751.69;5103486;27;20505;-78
2021/03/06 10:54:20;;;;;;;5.13;2.55;;;;;;;5.23;28.89;101769.44;5136732;27;20458;-79
2021/03/06 10:56:46;;;;;;;6.18;3.08;;;;;;;5.25;30.32;101756.19;5136167;27;20096;-78
2021/03/06 10:59:11;;;;;;;6.13;2.92;;;;;;;5.02;29.52;101728.31;5136395;27;20118;-78
2021/03/06 11:01:53;;;;;;;7.05;3.15;;;;;;;5.12;29.93;101751.09;5136307;27;20031;-78
2021/03/06 11:04:28;;;;;;;8.00;3.40;;;;;;;5.32;29.36;101747.28;5136423;27;20015;-78
2021/03/06 11:07:08;;;;;;;5.47;2.72;;;;;;;5.30;29.64;101743.75;5135964;27;20047;-78
2021/03/06 11:09:38;;;;;;;5.28;2.30;;;;;;;5.24;27.01;101733.28;5136389;27;20014;-75
2021/03/06 11:12:22;;;;;;;7.03;2.75;;;;;;;5.38;26.77;101736.59;5135953;27;20038;-74
2021/03/06 11:15:14;;;;;;;5.70;2.60;;;;;;;5.47;27.69;101725.84;5135851;27;20031;-79
2021/03/06 11:17:45;;;;;;;6.70;2.65;;;;;;;5.52;27.92;101726.66;5137029;27;20094;-78
2021/03/06 11:20:13;;;;;;;5.75;2.75;;;;;;;5.39;28.70;101727.75;5135858;27;20047;-77
2021/03/06 11:22:40;;;;;;;5.53;3.03;;;;;;;5.42;29.66;101711.84;5117232;27;20098;-75
2021/03/06 11:25:08;;;;;;;5.80;3.08;;;;;;;5.50;30.46;101712.59;5117037;27;20041;-79
2021/03/06 11:28:02;;;;;;;6.47;3.15;;;;;;;5.65;30.53;101709.69;5117296;27;20492;-75
2021/03/06 11:30:31;;;;;;;6.18;2.97;;;;;;;5.61;29.82;101709.78;5132028;27;20382;-76
2021/03/06 11:32:57;;;;;;;6.40;3.63;;;;;;;5.67;30.34;101709.66;5135314;27;20069;-77
2021/03/06 11:35:24;;;;;;;7.80;3.28;;;;;;;5.62;30.14;101688.56;5135753;27;20015;-76